createdAt,value
2023-05-15T00:00:55.264Z,28.07
2023-05-15T00:03:23.280Z,25.17
2023-05-15T00:05:52.455Z,27.40
2023-05-15T00:08:20.436Z,25.57
2023-05-15T00:11:00.716Z,23.80
2023-05-15T00:13:31.209Z,24.93
2023-05-15T00:15:59.267Z,27.30
2023-05-15T00:18:27.551Z,26.90
2023-05-15T00:20:55.529Z,27.27
2023-05-15T00:23:43.527Z,24.13
2023-05-15T00:26:11.480Z,26.30
2023-05-15T00:28:40.747Z,30.60
2023-05-15T00:31:09.628Z,25.80
2023-05-15T00:33:37.531Z,32.80
2023-05-15T00:36:05.886Z,25.37
2023-05-15T00:38:34.382Z,27.73
2023-05-15T00:41:03.047Z,31.57
2023-05-15T00:43:32.002Z,31.63
2023-05-15T00:46:03.265Z,25.33
2023-05-15T00:48:32.515Z,31.43
2023-05-15T00:51:20.428Z,30.13
2023-05-15T00:53:48.548Z,30.73
2023-05-15T00:56:18.449Z,32.17
2023-05-15T00:58:48.576Z,30.57
2023-05-15T01:01:18.608Z,33.17
2023-05-15T01:03:47.790Z,28.00
2023-05-15T01:06:15.646Z,31.87
2023-05-15T01:08:44.858Z,31.30
2023-05-15T01:11:14.778Z,33.97
2023-05-15T01:13:42.968Z,34.27
2023-05-15T01:16:11.807Z,34.93
2023-05-15T01:18:41.219Z,30.20
2023-05-15T01:21:27.987Z,32.47
2023-05-15T01:24:17.224Z,32.63
2023-05-15T01:29:59.048Z,33.63
2023-05-15T01:32:33.082Z,32.53
2023-05-15T01:35:09.968Z,30.70
2023-05-15T01:37:42.252Z,29.77
2023-05-15T01:40:12.834Z,33.60
2023-05-15T01:43:08.693Z,31.43
2023-05-15T01:45:37.794Z,31.90
2023-05-15T01:48:09.726Z,30.50
2023-05-15T01:50:59.167Z,30.90
2023-05-15T01:53:28.274Z,28.20
2023-05-15T01:55:56.416Z,34.50
2023-05-15T01:58:27.175Z,31.27
2023-05-15T02:00:56.056Z,32.93
2023-05-15T02:03:25.286Z,29.67
2023-05-15T02:05:56.429Z,31.10
2023-05-15T02:08:25.657Z,29.83
2023-05-15T02:10:54.056Z,27.73
2023-05-15T02:13:23.473Z,26.40
2023-05-15T02:15:53.075Z,34.10
2023-05-15T02:18:21.096Z,29.90
2023-05-15T02:20:49.057Z,26.17
2023-05-15T02:23:17.004Z,34.07
2023-05-15T02:26:23.551Z,28.93
2023-05-15T02:28:59.490Z,35.07
2023-05-15T02:31:36.760Z,31.50
2023-05-15T02:34:10.964Z,30.37
2023-05-15T02:36:42.485Z,32.10
2023-05-15T02:39:13.797Z,31.67
2023-05-15T02:41:42.783Z,28.53
2023-05-15T02:44:11.359Z,29.13
2023-05-15T02:46:41.409Z,29.70
2023-05-15T02:49:28.332Z,30.87
2023-05-15T02:52:15.815Z,33.20
2023-05-15T02:54:44.106Z,33.87
2023-05-15T02:57:12.067Z,31.27
2023-05-15T02:59:40.181Z,30.53
2023-05-15T03:02:09.506Z,34.30
2023-05-15T03:04:37.735Z,39.23
2023-05-15T03:07:05.887Z,35.90
2023-05-15T03:09:33.818Z,34.13
2023-05-15T03:12:01.710Z,34.20
2023-05-15T03:14:29.555Z,35.20
2023-05-15T03:16:57.643Z,35.50
2023-05-15T03:19:26.925Z,39.60
2023-05-15T03:21:54.853Z,40.60
2023-05-15T03:24:22.802Z,42.27
2023-05-15T03:26:50.690Z,39.13
2023-05-15T03:29:18.776Z,42.00
2023-05-15T03:32:06.961Z,38.23
2023-05-15T03:34:37.100Z,38.07
2023-05-15T03:37:05.138Z,44.03
2023-05-15T03:39:33.028Z,36.10
2023-05-15T03:42:01.021Z,37.20
2023-05-15T03:44:29.617Z,39.83
2023-05-15T03:46:58.525Z,45.23
2023-05-15T03:49:26.371Z,44.17
2023-05-15T03:51:55.667Z,40.13
2023-05-15T03:54:42.935Z,42.13
2023-05-15T03:57:10.882Z,45.17
2023-05-15T03:59:38.794Z,40.60
2023-05-15T04:02:07.048Z,47.70
2023-05-15T04:04:35.399Z,43.70
2023-05-15T04:07:06.179Z,46.97
2023-05-15T04:09:34.046Z,45.50
2023-05-15T04:12:01.991Z,44.53
2023-05-15T04:14:29.868Z,46.23
2023-05-15T04:16:57.754Z,46.03
2023-05-15T04:19:25.627Z,46.87
2023-05-15T04:21:53.482Z,46.97
2023-05-15T04:24:22.694Z,49.43
2023-05-15T04:26:50.722Z,47.83
2023-05-15T04:29:18.644Z,46.63
2023-05-15T04:31:46.521Z,49.33
2023-05-15T04:34:14.568Z,51.50
2023-05-15T04:36:43.177Z,51.30
2023-05-15T04:39:11.162Z,49.80
2023-05-15T04:41:40.460Z,59.53
2023-05-15T04:44:08.557Z,52.83
2023-05-15T04:46:37.528Z,46.77
2023-05-15T04:49:06.627Z,52.33
2023-05-15T04:51:34.581Z,50.70
2023-05-15T04:54:02.657Z,53.27
2023-05-15T04:56:30.585Z,54.43
2023-05-15T04:58:59.890Z,55.17
2023-05-15T05:01:27.911Z,62.07
2023-05-15T05:03:55.997Z,64.67
2023-05-15T05:06:24.806Z,55.27
2023-05-15T05:08:52.706Z,73.17
2023-05-15T05:11:21.538Z,72.10
2023-05-15T05:13:50.871Z,79.80
2023-05-15T05:16:20.260Z,88.73
2023-05-15T05:18:48.299Z,82.80
2023-05-15T05:21:16.259Z,62.90
2023-05-15T05:23:44.103Z,80.23
2023-05-15T05:26:31.440Z,73.97
2023-05-15T05:28:59.261Z,71.73
2023-05-15T05:31:28.461Z,72.80
2023-05-15T05:33:56.655Z,69.60
2023-05-15T05:36:24.598Z,67.27
2023-05-15T05:38:52.506Z,66.33
2023-05-15T05:41:21.505Z,63.80
2023-05-15T05:43:49.521Z,66.83
2023-05-15T05:46:17.408Z,61.40
2023-05-15T05:48:46.652Z,63.60
2023-05-15T05:51:14.616Z,63.67
2023-05-15T05:53:42.572Z,66.27
2023-05-15T05:56:10.665Z,67.40
2023-05-15T05:58:38.579Z,61.40
2023-05-15T06:01:07.031Z,59.33
2023-05-15T06:03:35.224Z,60.03
2023-05-15T06:06:04.997Z,59.90
2023-05-15T06:08:32.948Z,68.30
2023-05-15T06:11:00.863Z,74.10
2023-05-15T06:13:28.900Z,65.90
2023-05-15T06:15:56.721Z,58.70
2023-05-15T06:18:24.580Z,62.80
2023-05-15T06:20:53.382Z,63.17
2023-05-15T06:23:42.038Z,59.87
2023-05-15T06:26:10.097Z,64.80
2023-05-15T06:28:38.012Z,53.30
2023-05-15T06:31:06.198Z,56.27
2023-05-15T06:33:34.109Z,61.50
2023-05-15T06:36:01.945Z,55.57
2023-05-15T06:38:29.929Z,63.00
2023-05-15T06:40:59.141Z,54.20
2023-05-15T06:46:16.142Z,49.70
2023-05-15T06:48:44.020Z,50.80
2023-05-15T06:51:11.993Z,53.97
2023-05-15T06:53:40.008Z,54.07
2023-05-15T06:56:27.753Z,52.13
2023-05-15T06:58:56.517Z,46.10
2023-05-15T07:01:24.395Z,48.20
2023-05-15T07:03:52.322Z,52.60
2023-05-15T07:06:20.235Z,46.70
2023-05-15T07:08:48.156Z,46.93
2023-05-15T07:11:17.400Z,43.00
2023-05-15T07:13:45.526Z,46.07
2023-05-15T07:16:13.357Z,47.13
2023-05-15T07:18:41.346Z,47.03
2023-05-15T07:21:09.297Z,45.93
2023-05-15T07:23:56.130Z,47.03
2023-05-15T07:26:32.802Z,48.03
2023-05-15T07:29:04.861Z,43.33
2023-05-15T07:31:33.606Z,45.70
2023-05-15T07:34:01.561Z,43.70
2023-05-15T07:36:29.436Z,41.40
2023-05-15T07:38:57.334Z,44.50
2023-05-15T07:41:26.561Z,41.67
2023-05-15T07:43:54.450Z,41.37
2023-05-15T07:46:22.486Z,41.43
2023-05-15T07:48:50.589Z,37.50
2023-05-15T07:51:18.546Z,35.53
2023-05-15T07:53:46.488Z,37.83
2023-05-15T07:56:14.326Z,37.13
2023-05-15T07:58:43.548Z,40.57
2023-05-15T08:01:11.875Z,35.40
2023-05-15T08:03:39.939Z,39.20
2023-05-15T08:06:08.379Z,39.37
2023-05-15T08:08:36.328Z,34.43
2023-05-15T08:11:04.275Z,37.60
2023-05-15T08:13:32.189Z,37.00
2023-05-15T08:16:01.526Z,36.20
2023-05-15T08:18:29.424Z,36.90
2023-05-15T08:20:57.324Z,34.77
2023-05-15T08:23:25.204Z,36.90
2023-05-15T08:25:53.097Z,38.23
2023-05-15T08:28:20.972Z,35.07
2023-05-15T08:30:48.793Z,36.97
2023-05-15T08:33:17.990Z,39.07
2023-05-15T08:35:45.973Z,38.87
2023-05-15T08:38:14.338Z,34.63
2023-05-15T08:40:46.993Z,33.87
2023-05-15T08:43:18.480Z,33.83
2023-05-15T08:45:46.456Z,34.67
2023-05-15T08:48:17.555Z,34.03
2023-05-15T08:50:48.246Z,34.93
2023-05-15T08:53:16.540Z,35.90
2023-05-15T08:55:44.683Z,33.17
2023-05-15T08:58:13.127Z,31.10
2023-05-15T09:00:41.086Z,28.33
2023-05-15T09:03:15.460Z,27.63
2023-05-15T09:05:43.919Z,30.20
2023-05-15T09:08:13.521Z,28.90
2023-05-15T09:10:41.582Z,32.53
2023-05-15T09:13:11.124Z,30.37
2023-05-15T09:15:39.242Z,26.83
2023-05-15T09:18:07.889Z,25.83
2023-05-15T09:20:37.668Z,26.30
2023-05-15T09:23:06.750Z,25.67
2023-05-15T09:25:40.756Z,24.77
2023-05-15T09:28:29.524Z,24.57
2023-05-15T09:31:02.093Z,25.73
2023-05-15T09:33:32.379Z,28.27
2023-05-15T09:36:00.535Z,24.80
2023-05-15T09:38:28.774Z,22.50
2023-05-15T09:41:06.089Z,26.13
2023-05-15T09:43:39.150Z,25.03
2023-05-15T09:46:08.145Z,23.83
2023-05-15T09:48:36.595Z,24.00
2023-05-15T09:51:07.660Z,23.43
2023-05-15T09:53:38.435Z,23.80
2023-05-15T09:56:10.371Z,25.67
2023-05-15T09:58:38.324Z,25.10
2023-05-15T10:01:12.343Z,24.90
2023-05-15T10:03:43.664Z,24.47
2023-05-15T10:06:19.124Z,25.47
2023-05-15T10:08:52.460Z,23.00
2023-05-15T10:11:22.642Z,25.33
2023-05-15T10:13:50.776Z,23.07
2023-05-15T10:16:21.315Z,26.03
2023-05-15T10:18:51.808Z,24.50
2023-05-15T10:21:22.942Z,23.67
2023-05-15T10:23:52.151Z,22.77
2023-05-15T10:26:26.833Z,25.23
2023-05-15T10:28:56.010Z,23.60
2023-05-15T10:31:25.604Z,22.73
2023-05-15T10:33:56.243Z,24.20
2023-05-15T10:36:25.276Z,25.47
2023-05-15T10:38:53.564Z,24.17
2023-05-15T10:41:23.919Z,23.70
2023-05-15T10:43:54.740Z,26.07
2023-05-15T10:46:22.874Z,25.47
2023-05-15T10:48:52.071Z,25.50
2023-05-15T10:51:25.118Z,25.47
2023-05-15T10:53:53.515Z,25.20
2023-05-15T10:56:26.905Z,23.97
2023-05-15T10:58:56.088Z,25.00
2023-05-15T11:01:28.349Z,25.53
2023-05-15T11:04:10.828Z,25.90
2023-05-15T11:06:39.547Z,23.87
2023-05-15T11:09:38.990Z,25.87
2023-05-15T11:12:09.976Z,24.80
2023-05-15T11:14:39.886Z,26.77
2023-05-15T11:17:09.443Z,26.00
2023-05-15T11:19:58.260Z,26.00
2023-05-15T11:22:31.715Z,24.90
2023-05-15T11:25:01.938Z,25.70
2023-05-15T11:27:33.221Z,25.13
2023-05-15T11:30:12.671Z,26.00
2023-05-15T11:32:52.131Z,25.73
2023-05-15T11:35:22.755Z,26.27
2023-05-15T11:37:53.862Z,26.03
2023-05-15T11:40:24.643Z,24.93
2023-05-15T11:43:08.938Z,24.47
2023-05-15T11:45:39.322Z,25.73
2023-05-15T11:48:28.989Z,24.17
2023-05-15T11:50:56.913Z,24.07
2023-05-15T11:53:25.197Z,26.30
2023-05-15T11:55:54.483Z,25.27
2023-05-15T11:58:26.094Z,26.57
2023-05-15T12:00:55.336Z,26.73
2023-05-15T12:03:25.095Z,27.63
2023-05-15T12:05:59.671Z,25.23
2023-05-15T12:08:32.829Z,26.70
2023-05-15T12:11:01.364Z,27.27
2023-05-15T12:13:31.287Z,26.83
2023-05-15T12:16:18.689Z,26.73
2023-05-15T12:18:48.624Z,29.33
2023-05-15T12:21:18.316Z,31.07
2023-05-15T12:24:03.445Z,32.40
2023-05-15T12:26:36.112Z,35.27
2023-05-15T12:29:06.529Z,34.63
2023-05-15T12:31:36.475Z,35.20
2023-05-15T12:34:04.610Z,38.30
2023-05-15T12:36:32.609Z,40.67
2023-05-15T12:39:07.685Z,40.23
2023-05-15T12:41:54.905Z,37.47
2023-05-15T12:44:27.119Z,38.53
2023-05-15T12:46:55.930Z,38.10
2023-05-15T12:49:24.008Z,39.33
2023-05-15T12:51:51.866Z,39.73
2023-05-15T12:54:20.539Z,41.07
2023-05-15T12:56:49.095Z,38.90
2023-05-15T12:59:17.041Z,39.83
2023-05-15T13:01:46.452Z,36.80
2023-05-15T13:04:14.584Z,42.93
2023-05-15T13:06:46.849Z,40.27
2023-05-15T13:09:15.719Z,42.93
2023-05-15T13:11:45.851Z,39.70
2023-05-15T13:14:17.491Z,38.80
2023-05-15T13:16:47.991Z,41.33
2023-05-15T13:19:17.342Z,37.33
2023-05-15T13:21:46.047Z,34.77
2023-05-15T13:24:14.120Z,37.10
2023-05-15T13:26:42.224Z,38.63
2023-05-15T13:29:10.153Z,38.67
2023-05-15T13:31:38.075Z,36.80
2023-05-15T13:34:07.395Z,36.90
2023-05-15T13:36:35.544Z,37.63
2023-05-15T13:39:03.925Z,37.67
2023-05-15T13:41:31.811Z,36.43
2023-05-15T13:43:59.712Z,36.97
2023-05-15T13:46:27.631Z,39.77
2023-05-15T13:48:55.554Z,38.17
2023-05-15T13:51:24.740Z,38.20
2023-05-15T13:53:52.665Z,39.00
2023-05-15T13:56:20.764Z,42.17
2023-05-15T13:58:48.784Z,43.37
2023-05-15T14:01:16.661Z,41.50
2023-05-15T14:03:45.276Z,42.53
2023-05-15T14:06:13.540Z,42.97
2023-05-15T14:08:42.781Z,41.00
2023-05-15T14:11:10.612Z,39.50
2023-05-15T14:13:38.510Z,33.63
2023-05-15T14:16:07.160Z,35.47
2023-05-15T14:18:35.123Z,31.37
2023-05-15T14:21:03.081Z,31.93
2023-05-15T14:23:30.965Z,30.63
2023-05-15T14:26:00.382Z,32.93
2023-05-15T14:28:28.298Z,28.30
2023-05-15T14:30:56.294Z,28.83
2023-05-15T14:33:24.200Z,24.77
2023-05-15T14:35:52.325Z,20.70
2023-05-15T14:38:20.358Z,22.80
2023-05-15T14:40:48.290Z,21.73
2023-05-15T14:43:17.490Z,21.00
2023-05-15T14:45:45.418Z,18.17
2023-05-15T14:48:33.941Z,15.87
2023-05-15T14:51:02.022Z,16.07
2023-05-15T14:53:29.887Z,17.37
2023-05-15T14:55:58.499Z,17.10
2023-05-15T14:58:27.783Z,15.23
2023-05-15T15:01:13.785Z,15.83
2023-05-15T15:03:42.600Z,15.37
2023-05-15T15:06:10.652Z,17.63
2023-05-15T15:08:38.580Z,12.87
2023-05-15T15:11:07.693Z,13.67
2023-05-15T15:13:36.998Z,14.77
2023-05-15T15:16:06.519Z,11.43
2023-05-15T15:18:34.512Z,9.37
2023-05-15T15:21:02.476Z,12.13
2023-05-15T15:23:30.346Z,11.40
2023-05-15T15:25:58.254Z,14.67
2023-05-15T15:28:26.093Z,12.70
2023-05-15T15:30:55.368Z,13.17
2023-05-15T15:33:23.251Z,17.93
2023-05-15T15:36:10.804Z,10.00
2023-05-15T15:38:41.627Z,12.40
2023-05-15T15:41:09.784Z,15.40
2023-05-15T15:43:37.996Z,12.87
2023-05-15T15:46:07.740Z,8.67
2023-05-15T15:48:35.725Z,10.17
2023-05-15T15:51:08.218Z,9.07
2023-05-15T15:53:36.079Z,9.93
2023-05-15T15:56:03.923Z,9.23
2023-05-15T15:58:31.824Z,12.67
2023-05-15T16:01:03.668Z,8.90
2023-05-15T16:03:33.413Z,8.73
2023-05-15T16:06:01.512Z,12.20
2023-05-15T16:08:29.358Z,8.90
2023-05-15T16:10:57.938Z,8.10
2023-05-15T16:13:25.797Z,13.10
2023-05-15T16:15:53.691Z,14.80
2023-05-15T16:18:21.577Z,13.20
2023-05-15T16:20:50.917Z,10.73
2023-05-15T16:23:20.663Z,12.87
2023-05-15T16:25:48.628Z,8.30
2023-05-15T16:28:16.589Z,10.23
2023-05-15T16:30:49.545Z,7.27
2023-05-15T16:33:18.528Z,9.27
2023-05-15T16:35:47.300Z,10.37
2023-05-15T16:38:17.902Z,11.13
2023-05-15T16:40:46.247Z,10.73
2023-05-15T16:43:14.506Z,8.23
2023-05-15T16:45:42.467Z,9.47
2023-05-15T16:48:10.973Z,8.07
2023-05-15T16:50:39.049Z,5.37
2023-05-15T16:53:07.283Z,6.40
2023-05-15T16:55:36.584Z,9.47
2023-05-15T16:58:04.423Z,5.97
2023-05-15T17:00:32.286Z,6.03
2023-05-15T17:03:00.652Z,4.83
2023-05-15T17:05:28.833Z,10.57
2023-05-15T17:07:56.721Z,6.20
2023-05-15T17:10:25.110Z,4.83
2023-05-15T17:12:54.787Z,4.53
2023-05-15T17:15:23.949Z,6.47
2023-05-15T17:17:51.975Z,5.23
2023-05-15T17:20:19.888Z,5.27
2023-05-15T17:22:47.721Z,5.47
2023-05-15T17:25:15.585Z,8.47
2023-05-15T17:27:43.490Z,8.37
2023-05-15T17:30:13.621Z,5.80
2023-05-15T17:32:41.641Z,9.83
2023-05-15T17:35:10.432Z,5.70
2023-05-15T17:37:38.731Z,5.33
2023-05-15T17:40:08.008Z,5.20
2023-05-15T17:42:36.204Z,6.33
2023-05-15T17:45:04.609Z,4.20
2023-05-15T17:47:36.173Z,5.40
2023-05-15T17:50:04.127Z,4.50
2023-05-15T17:52:31.968Z,5.10
2023-05-15T17:55:01.929Z,6.03
2023-05-15T17:57:29.801Z,5.63
2023-05-15T17:59:57.745Z,5.50
2023-05-15T18:02:26.809Z,7.17
2023-05-15T18:04:56.119Z,6.60
2023-05-15T18:07:24.021Z,4.70
2023-05-15T18:09:51.961Z,9.47
2023-05-15T18:12:19.836Z,6.83
2023-05-15T18:14:47.668Z,8.10
2023-05-15T18:17:16.156Z,6.23
2023-05-15T18:19:44.800Z,3.70
2023-05-15T18:22:14.140Z,10.10
2023-05-15T18:24:41.988Z,8.30
2023-05-15T18:27:10.488Z,5.27
2023-05-15T18:29:38.381Z,5.37
2023-05-15T18:32:06.746Z,9.17
2023-05-15T18:34:34.624Z,4.70
2023-05-15T18:37:02.424Z,4.43
2023-05-15T18:39:31.569Z,5.07
2023-05-15T18:42:00.251Z,7.20
2023-05-15T18:44:28.068Z,6.10
2023-05-15T18:46:55.968Z,10.47
2023-05-15T18:49:23.836Z,7.27
2023-05-15T18:51:51.653Z,7.37
2023-05-15T18:54:19.540Z,5.70
2023-05-15T18:56:48.725Z,7.90
2023-05-15T18:59:16.603Z,11.17
2023-05-15T19:01:45.119Z,9.83
2023-05-15T19:04:13.116Z,8.93
2023-05-15T19:06:42.624Z,10.70
2023-05-15T19:09:10.547Z,11.13
2023-05-15T19:11:38.372Z,13.23
2023-05-15T19:14:07.535Z,9.80
2023-05-15T19:16:35.446Z,7.10
2023-05-15T19:19:03.441Z,12.73
2023-05-15T19:21:31.372Z,14.07
2023-05-15T19:23:59.283Z,14.37
2023-05-15T19:26:28.438Z,14.23
2023-05-15T19:28:56.412Z,13.40
2023-05-15T19:31:31.447Z,12.40
2023-05-15T19:34:00.284Z,12.77
2023-05-15T19:36:28.462Z,13.90
2023-05-15T19:38:56.480Z,10.90
2023-05-15T19:41:24.450Z,14.53
2023-05-15T19:46:41.440Z,10.67
2023-05-15T19:49:10.257Z,15.30
2023-05-15T19:51:40.944Z,14.00
2023-05-15T19:54:09.729Z,12.00
2023-05-15T19:56:37.575Z,12.20
2023-05-15T19:59:05.435Z,9.97
2023-05-15T20:01:33.357Z,11.57
2023-05-15T20:04:02.673Z,15.37
2023-05-15T20:06:30.742Z,11.33
2023-05-15T20:08:58.682Z,9.90
2023-05-15T20:11:26.582Z,14.20
2023-05-15T20:13:54.472Z,10.90
2023-05-15T20:16:22.496Z,21.30
2023-05-15T20:18:55.243Z,10.13
2023-05-15T20:21:24.553Z,10.90
2023-05-15T20:23:52.503Z,12.80
2023-05-15T20:26:22.241Z,9.23
2023-05-15T20:28:50.224Z,9.53
2023-05-15T20:31:18.128Z,9.43
2023-05-15T20:33:46.217Z,10.33
2023-05-15T20:36:14.445Z,9.03
2023-05-15T20:38:44.854Z,11.50
2023-05-15T20:41:12.830Z,8.10
2023-05-15T20:43:40.754Z,8.50
2023-05-15T20:46:09.818Z,5.90
2023-05-15T20:48:37.700Z,7.37
2023-05-15T20:51:05.867Z,4.77
2023-05-15T20:53:33.751Z,6.07
2023-05-15T20:56:03.217Z,2.63
2023-05-15T20:58:31.192Z,3.03
2023-05-15T21:01:00.946Z,4.27
2023-05-15T21:03:30.331Z,6.93
2023-05-15T21:05:58.374Z,5.43
2023-05-15T21:08:27.741Z,4.27
2023-05-15T21:10:55.791Z,2.87
2023-05-15T21:13:25.107Z,3.70
2023-05-15T21:15:53.204Z,4.67
2023-05-15T21:18:21.068Z,4.20
2023-05-15T21:20:48.889Z,4.63
2023-05-15T21:23:16.888Z,4.33
2023-05-15T21:25:44.922Z,4.47
2023-05-15T21:28:12.841Z,7.10
2023-05-15T21:30:42.167Z,4.60
2023-05-15T21:33:10.087Z,4.83
2023-05-15T21:35:38.179Z,5.47
2023-05-15T21:38:06.640Z,5.07
2023-05-15T21:40:34.474Z,6.27
2023-05-15T21:43:02.298Z,5.93
2023-05-15T21:45:31.029Z,5.50
2023-05-15T21:48:00.269Z,6.37
2023-05-15T21:50:28.504Z,7.03
2023-05-15T21:52:57.202Z,4.00
2023-05-15T21:55:25.173Z,7.10
2023-05-15T21:57:53.077Z,5.90
2023-05-15T22:00:21.280Z,8.00
2023-05-15T22:02:49.251Z,6.80
2023-05-15T22:05:18.675Z,9.13
2023-05-15T22:07:46.564Z,6.87
2023-05-15T22:10:16.485Z,6.90
2023-05-15T22:12:44.726Z,7.83
2023-05-15T22:15:14.421Z,5.37
2023-05-15T22:18:01.780Z,7.23
2023-05-15T22:20:50.095Z,6.23
2023-05-15T22:23:17.921Z,5.40
2023-05-15T22:25:45.868Z,7.67
2023-05-15T22:28:13.729Z,7.50
2023-05-15T22:30:41.621Z,9.97
2023-05-15T22:33:09.620Z,8.53
2023-05-15T22:35:38.904Z,7.30
2023-05-15T22:38:07.448Z,8.37
2023-05-15T22:40:35.317Z,12.53
2023-05-15T22:43:03.889Z,8.87
2023-05-15T22:45:31.795Z,13.07
2023-05-15T22:47:59.788Z,8.43
2023-05-15T22:50:27.851Z,8.40
2023-05-15T22:52:57.328Z,7.97
2023-05-15T22:55:25.224Z,8.97
2023-05-15T22:57:53.088Z,7.53
2023-05-15T23:00:21.373Z,7.57
2023-05-15T23:02:49.522Z,9.20
2023-05-15T23:05:17.431Z,10.17
2023-05-15T23:07:45.253Z,11.73
2023-05-15T23:10:14.448Z,9.60
2023-05-15T23:12:42.491Z,9.60
2023-05-15T23:15:11.328Z,12.60
2023-05-15T23:17:39.674Z,13.30
2023-05-15T23:20:10.359Z,12.50
2023-05-15T23:22:38.557Z,11.27
2023-05-15T23:25:07.453Z,14.47
2023-05-15T23:27:36.844Z,12.63
2023-05-15T23:30:05.460Z,14.10
2023-05-15T23:32:33.401Z,13.93
2023-05-15T23:35:01.295Z,16.23
2023-05-15T23:37:29.370Z,10.93
2023-05-15T23:39:57.249Z,13.90
2023-05-15T23:42:25.261Z,12.03
2023-05-15T23:44:54.439Z,14.03
2023-05-15T23:47:22.361Z,11.93
2023-05-15T23:49:50.375Z,15.17
2023-05-15T23:52:18.288Z,14.53
2023-05-15T23:54:46.547Z,12.10
2023-05-15T23:57:14.506Z,11.03
2023-05-15T23:59:42.378Z,15.30
